sensor_id;sensor_type;location;lat;lon;timestamp;P1;durP1;ratioP1;P2;durP2;ratioP2
5995;SDS011;3026;53.612;7.278;2023-06-24T00:02:02;7.47;;;5.73;;
5995;SDS011;3026;53.612;7.278;2023-06-24T00:04:29;5.33;;;4.83;;
5995;SDS011;3026;53.612;7.278;2023-06-24T00:06:56;5.73;;;4.80;;
5995;SDS011;3026;53.612;7.278;2023-06-24T00:09:25;5.60;;;5.00;;
5995;SDS011;3026;53.612;7.278;2023-06-24T00:11:52;5.60;;;4.90;;
5995;SDS011;3026;53.612;7.278;2023-06-24T00:14:20;7.17;;;5.53;;
5995;SDS011;3026;53.612;7.278;2023-06-24T00:16:49;5.47;;;4.90;;
5995;SDS011;3026;53.612;7.278;2023-06-24T00:19:19;6.63;;;5.03;;
5995;SDS011;3026;53.612;7.278;2023-06-24T00:21:47;5.60;;;5.03;;
5995;SDS011;3026;53.612;7.278;2023-06-24T00:24:16;6.83;;;5.50;;
5995;SDS011;3026;53.612;7.278;2023-06-24T00:26:44;5.97;;;5.37;;
5995;SDS011;3026;53.612;7.278;2023-06-24T00:29:12;5.80;;;5.00;;
5995;SDS011;3026;53.612;7.278;2023-06-24T00:31:40;6.17;;;5.57;;
5995;SDS011;3026;53.612;7.278;2023-06-24T00:34:07;7.10;;;5.67;;
5995;SDS011;3026;53.612;7.278;2023-06-24T00:36:35;6.73;;;6.03;;
5995;SDS011;3026;53.612;7.278;2023-06-24T00:39:03;6.23;;;5.63;;
5995;SDS011;3026;53.612;7.278;2023-06-24T00:41:30;6.00;;;5.40;;
5995;SDS011;3026;53.612;7.278;2023-06-24T00:43:58;6.47;;;5.30;;
5995;SDS011;3026;53.612;7.278;2023-06-24T00:46:25;8.73;;;5.30;;
5995;SDS011;3026;53.612;7.278;2023-06-24T00:48:53;5.97;;;5.37;;
5995;SDS011;3026;53.612;7.278;2023-06-24T00:51:21;7.00;;;6.20;;
5995;SDS011;3026;53.612;7.278;2023-06-24T00:53:53;6.47;;;5.73;;
5995;SDS011;3026;53.612;7.278;2023-06-24T00:56:20;9.03;;;5.37;;
5995;SDS011;3026;53.612;7.278;2023-06-24T00:58:52;7.17;;;5.87;;
5995;SDS011;3026;53.612;7.278;2023-06-24T01:01:19;5.63;;;5.07;;
5995;SDS011;3026;53.612;7.278;2023-06-24T01:03:46;7.47;;;5.87;;
5995;SDS011;3026;53.612;7.278;2023-06-24T01:06:13;6.27;;;5.67;;
5995;SDS011;3026;53.612;7.278;2023-06-24T01:08:41;8.13;;;6.00;;
5995;SDS011;3026;53.612;7.278;2023-06-24T01:11:09;7.37;;;6.27;;
5995;SDS011;3026;53.612;7.278;2023-06-24T01:13:36;7.73;;;6.93;;
5995;SDS011;3026;53.612;7.278;2023-06-24T01:16:05;9.67;;;7.33;;
5995;SDS011;3026;53.612;7.278;2023-06-24T01:18:38;7.77;;;7.03;;
5995;SDS011;3026;53.612;7.278;2023-06-24T01:21:10;8.00;;;6.40;;
5995;SDS011;3026;53.612;7.278;2023-06-24T01:23:52;7.83;;;6.73;;
5995;SDS011;3026;53.612;7.278;2023-06-24T01:26:44;8.20;;;6.97;;
5995;SDS011;3026;53.612;7.278;2023-06-24T01:29:41;8.50;;;7.30;;
5995;SDS011;3026;53.612;7.278;2023-06-24T01:32:18;7.60;;;6.80;;
5995;SDS011;3026;53.612;7.278;2023-06-24T01:34:55;8.47;;;7.57;;
5995;SDS011;3026;53.612;7.278;2023-06-24T01:37:25;8.37;;;7.53;;
5995;SDS011;3026;53.612;7.278;2023-06-24T01:39:56;8.60;;;7.20;;
5995;SDS011;3026;53.612;7.278;2023-06-24T01:42:32;8.77;;;7.13;;
5995;SDS011;3026;53.612;7.278;2023-06-24T01:45:01;10.13;;;7.63;;
5995;SDS011;3026;53.612;7.278;2023-06-24T01:47:31;7.93;;;6.93;;
5995;SDS011;3026;53.612;7.278;2023-06-24T01:49:58;7.23;;;6.13;;
5995;SDS011;3026;53.612;7.278;2023-06-24T01:52:29;8.57;;;6.90;;
5995;SDS011;3026;53.612;7.278;2023-06-24T01:54:58;9.43;;;7.30;;
5995;SDS011;3026;53.612;7.278;2023-06-24T01:57:26;7.63;;;6.50;;
5995;SDS011;3026;53.612;7.278;2023-06-24T01:59:56;8.40;;;6.73;;
5995;SDS011;3026;53.612;7.278;2023-06-24T02:02:25;7.63;;;6.83;;
5995;SDS011;3026;53.612;7.278;2023-06-24T02:04:55;8.47;;;6.53;;
5995;SDS011;3026;53.612;7.278;2023-06-24T02:07:24;7.17;;;6.47;;
5995;SDS011;3026;53.612;7.278;2023-06-24T02:09:55;6.80;;;6.10;;
5995;SDS011;3026;53.612;7.278;2023-06-24T02:12:23;6.90;;;6.20;;
5995;SDS011;3026;53.612;7.278;2023-06-24T02:14:52;6.47;;;5.67;;
5995;SDS011;3026;53.612;7.278;2023-06-24T02:17:21;7.93;;;6.43;;
5995;SDS011;3026;53.612;7.278;2023-06-24T02:19:50;6.30;;;5.57;;
5995;SDS011;3026;53.612;7.278;2023-06-24T02:22:20;8.53;;;6.33;;
5995;SDS011;3026;53.612;7.278;2023-06-24T02:24:49;7.20;;;5.63;;
5995;SDS011;3026;53.612;7.278;2023-06-24T02:27:16;6.70;;;6.10;;
5995;SDS011;3026;53.612;7.278;2023-06-24T02:29:43;6.43;;;5.77;;
5995;SDS011;3026;53.612;7.278;2023-06-24T02:32:12;8.00;;;6.10;;
5995;SDS011;3026;53.612;7.278;2023-06-24T02:34:39;7.33;;;5.70;;
5995;SDS011;3026;53.612;7.278;2023-06-24T02:37:06;10.90;;;6.13;;
5995;SDS011;3026;53.612;7.278;2023-06-24T02:39:35;8.77;;;5.90;;
5995;SDS011;3026;53.612;7.278;2023-06-24T02:42:04;7.10;;;5.47;;
5995;SDS011;3026;53.612;7.278;2023-06-24T02:44:31;5.57;;;5.07;;
5995;SDS011;3026;53.612;7.278;2023-06-24T02:46:59;6.43;;;5.33;;
5995;SDS011;3026;53.612;7.278;2023-06-24T02:49:26;7.00;;;5.87;;
5995;SDS011;3026;53.612;7.278;2023-06-24T02:51:54;7.10;;;5.90;;
5995;SDS011;3026;53.612;7.278;2023-06-24T02:54:21;8.33;;;6.03;;
5995;SDS011;3026;53.612;7.278;2023-06-24T02:56:49;7.03;;;5.93;;
5995;SDS011;3026;53.612;7.278;2023-06-24T02:59:16;8.47;;;5.77;;
5995;SDS011;3026;53.612;7.278;2023-06-24T03:01:47;7.10;;;5.93;;
5995;SDS011;3026;53.612;7.278;2023-06-24T03:04:14;6.20;;;5.60;;
5995;SDS011;3026;53.612;7.278;2023-06-24T03:06:41;6.43;;;5.03;;
5995;SDS011;3026;53.612;7.278;2023-06-24T03:09:09;5.90;;;5.13;;
5995;SDS011;3026;53.612;7.278;2023-06-24T03:11:42;5.80;;;5.27;;
5995;SDS011;3026;53.612;7.278;2023-06-24T03:14:11;6.53;;;5.90;;
5995;SDS011;3026;53.612;7.278;2023-06-24T03:16:38;6.77;;;5.87;;
5995;SDS011;3026;53.612;7.278;2023-06-24T03:19:05;9.53;;;6.63;;
5995;SDS011;3026;53.612;7.278;2023-06-24T03:21:32;7.17;;;6.07;;
5995;SDS011;3026;53.612;7.278;2023-06-24T03:23:59;7.73;;;6.47;;
5995;SDS011;3026;53.612;7.278;2023-06-24T03:26:31;8.57;;;6.77;;
5995;SDS011;3026;53.612;7.278;2023-06-24T03:28:58;10.23;;;7.80;;
5995;SDS011;3026;53.612;7.278;2023-06-24T03:31:27;8.30;;;7.30;;
5995;SDS011;3026;53.612;7.278;2023-06-24T03:33:54;10.47;;;8.63;;
5995;SDS011;3026;53.612;7.278;2023-06-24T03:36:21;9.53;;;8.33;;
5995;SDS011;3026;53.612;7.278;2023-06-24T03:38:49;9.63;;;8.23;;
5995;SDS011;3026;53.612;7.278;2023-06-24T03:41:16;10.07;;;8.47;;
5995;SDS011;3026;53.612;7.278;2023-06-24T03:43:42;12.43;;;9.50;;
5995;SDS011;3026;53.612;7.278;2023-06-24T03:46:10;17.10;;;8.93;;
5995;SDS011;3026;53.612;7.278;2023-06-24T03:48:38;10.67;;;8.50;;
5995;SDS011;3026;53.612;7.278;2023-06-24T03:51:05;11.97;;;9.43;;
5995;SDS011;3026;53.612;7.278;2023-06-24T03:53:32;14.17;;;9.83;;
5995;SDS011;3026;53.612;7.278;2023-06-24T03:55:59;12.73;;;9.53;;
5995;SDS011;3026;53.612;7.278;2023-06-24T03:58:26;13.00;;;8.87;;
5995;SDS011;3026;53.612;7.278;2023-06-24T04:00:53;12.43;;;9.23;;
5995;SDS011;3026;53.612;7.278;2023-06-24T04:03:22;10.10;;;8.67;;
5995;SDS011;3026;53.612;7.278;2023-06-24T04:05:53;11.93;;;9.60;;
5995;SDS011;3026;53.612;7.278;2023-06-24T04:08:21;11.77;;;9.53;;
5995;SDS011;3026;53.612;7.278;2023-06-24T04:10:48;14.37;;;10.57;;
5995;SDS011;3026;53.612;7.278;2023-06-24T04:13:15;10.17;;;9.07;;
5995;SDS011;3026;53.612;7.278;2023-06-24T04:15:43;13.93;;;10.37;;
5995;SDS011;3026;53.612;7.278;2023-06-24T04:18:10;14.17;;;10.67;;
5995;SDS011;3026;53.612;7.278;2023-06-24T04:20:37;14.37;;;8.80;;
5995;SDS011;3026;53.612;7.278;2023-06-24T04:23:06;16.03;;;10.40;;
5995;SDS011;3026;53.612;7.278;2023-06-24T04:25:35;11.07;;;9.47;;
5995;SDS011;3026;53.612;7.278;2023-06-24T04:28:02;13.63;;;9.90;;
5995;SDS011;3026;53.612;7.278;2023-06-24T04:30:29;13.80;;;11.00;;
5995;SDS011;3026;53.612;7.278;2023-06-24T04:32:56;15.10;;;9.87;;
5995;SDS011;3026;53.612;7.278;2023-06-24T04:35:23;14.10;;;9.40;;
5995;SDS011;3026;53.612;7.278;2023-06-24T04:37:50;14.67;;;10.07;;
5995;SDS011;3026;53.612;7.278;2023-06-24T04:40:18;11.70;;;9.50;;
5995;SDS011;3026;53.612;7.278;2023-06-24T04:42:45;14.40;;;10.20;;
5995;SDS011;3026;53.612;7.278;2023-06-24T04:45:12;11.67;;;9.80;;
5995;SDS011;3026;53.612;7.278;2023-06-24T04:47:39;11.37;;;9.80;;
5995;SDS011;3026;53.612;7.278;2023-06-24T04:50:07;13.13;;;9.93;;
5995;SDS011;3026;53.612;7.278;2023-06-24T04:52:35;21.17;;;10.50;;
5995;SDS011;3026;53.612;7.278;2023-06-24T04:55:03;11.63;;;10.17;;
5995;SDS011;3026;53.612;7.278;2023-06-24T04:57:32;13.93;;;10.67;;
5995;SDS011;3026;53.612;7.278;2023-06-24T04:59:59;13.90;;;10.30;;
5995;SDS011;3026;53.612;7.278;2023-06-24T05:02:26;14.80;;;11.27;;
5995;SDS011;3026;53.612;7.278;2023-06-24T05:04:53;13.23;;;9.87;;
5995;SDS011;3026;53.612;7.278;2023-06-24T05:07:20;12.13;;;9.50;;
5995;SDS011;3026;53.612;7.278;2023-06-24T05:09:47;17.43;;;12.40;;
5995;SDS011;3026;53.612;7.278;2023-06-24T05:12:16;17.17;;;11.43;;
5995;SDS011;3026;53.612;7.278;2023-06-24T05:14:48;17.43;;;12.03;;
5995;SDS011;3026;53.612;7.278;2023-06-24T05:17:17;16.00;;;12.33;;
5995;SDS011;3026;53.612;7.278;2023-06-24T05:19:43;14.10;;;11.97;;
5995;SDS011;3026;53.612;7.278;2023-06-24T05:22:10;17.90;;;12.70;;
5995;SDS011;3026;53.612;7.278;2023-06-24T05:24:37;19.97;;;13.37;;
5995;SDS011;3026;53.612;7.278;2023-06-24T05:27:06;19.13;;;12.73;;
5995;SDS011;3026;53.612;7.278;2023-06-24T05:29:33;16.17;;;11.80;;
5995;SDS011;3026;53.612;7.278;2023-06-24T05:32:02;15.73;;;12.10;;
5995;SDS011;3026;53.612;7.278;2023-06-24T05:34:29;13.43;;;11.67;;
5995;SDS011;3026;53.612;7.278;2023-06-24T05:36:56;19.50;;;12.00;;
5995;SDS011;3026;53.612;7.278;2023-06-24T05:39:23;16.07;;;11.63;;
5995;SDS011;3026;53.612;7.278;2023-06-24T05:41:50;18.60;;;13.13;;
5995;SDS011;3026;53.612;7.278;2023-06-24T05:44:17;14.73;;;11.43;;
5995;SDS011;3026;53.612;7.278;2023-06-24T05:46:44;16.40;;;11.60;;
5995;SDS011;3026;53.612;7.278;2023-06-24T05:49:12;13.77;;;11.67;;
5995;SDS011;3026;53.612;7.278;2023-06-24T05:51:39;16.90;;;10.60;;
5995;SDS011;3026;53.612;7.278;2023-06-24T05:54:06;11.20;;;9.20;;
5995;SDS011;3026;53.612;7.278;2023-06-24T05:56:33;11.03;;;9.43;;
5995;SDS011;3026;53.612;7.278;2023-06-24T05:59:01;12.80;;;9.70;;
5995;SDS011;3026;53.612;7.278;2023-06-24T06:01:28;14.07;;;9.67;;
5995;SDS011;3026;53.612;7.278;2023-06-24T06:03:55;14.03;;;9.20;;
5995;SDS011;3026;53.612;7.278;2023-06-24T06:06:23;14.07;;;10.37;;
5995;SDS011;3026;53.612;7.278;2023-06-24T06:08:50;11.10;;;9.80;;
5995;SDS011;3026;53.612;7.278;2023-06-24T06:11:17;10.47;;;9.20;;
5995;SDS011;3026;53.612;7.278;2023-06-24T06:13:44;9.03;;;8.17;;
5995;SDS011;3026;53.612;7.278;2023-06-24T06:16:11;11.73;;;8.20;;
5995;SDS011;3026;53.612;7.278;2023-06-24T06:18:37;10.67;;;8.13;;
5995;SDS011;3026;53.612;7.278;2023-06-24T06:21:04;9.87;;;7.00;;
5995;SDS011;3026;53.612;7.278;2023-06-24T06:23:32;9.93;;;6.30;;
5995;SDS011;3026;53.612;7.278;2023-06-24T06:25:59;8.53;;;7.00;;
5995;SDS011;3026;53.612;7.278;2023-06-24T06:28:26;11.53;;;7.13;;
5995;SDS011;3026;53.612;7.278;2023-06-24T06:30:53;6.67;;;5.73;;
5995;SDS011;3026;53.612;7.278;2023-06-24T06:33:22;10.33;;;6.33;;
5995;SDS011;3026;53.612;7.278;2023-06-24T06:35:49;7.20;;;6.30;;
5995;SDS011;3026;53.612;7.278;2023-06-24T06:38:16;9.00;;;6.17;;
5995;SDS011;3026;53.612;7.278;2023-06-24T06:40:44;10.90;;;6.07;;
5995;SDS011;3026;53.612;7.278;2023-06-24T06:43:11;7.63;;;6.07;;
5995;SDS011;3026;53.612;7.278;2023-06-24T06:45:37;6.07;;;5.53;;
5995;SDS011;3026;53.612;7.278;2023-06-24T06:48:05;7.10;;;5.77;;
5995;SDS011;3026;53.612;7.278;2023-06-24T06:50:33;6.63;;;5.50;;
5995;SDS011;3026;53.612;7.278;2023-06-24T06:53:00;8.83;;;5.90;;
5995;SDS011;3026;53.612;7.278;2023-06-24T06:55:27;8.67;;;5.63;;
5995;SDS011;3026;53.612;7.278;2023-06-24T06:57:55;7.20;;;6.37;;
5995;SDS011;3026;53.612;7.278;2023-06-24T07:00:22;6.73;;;5.90;;
5995;SDS011;3026;53.612;7.278;2023-06-24T07:02:49;8.30;;;6.17;;
5995;SDS011;3026;53.612;7.278;2023-06-24T07:05:15;9.60;;;6.33;;
5995;SDS011;3026;53.612;7.278;2023-06-24T07:07:43;7.87;;;6.23;;
5995;SDS011;3026;53.612;7.278;2023-06-24T07:10:10;6.93;;;6.23;;
5995;SDS011;3026;53.612;7.278;2023-06-24T07:12:37;7.93;;;6.50;;
5995;SDS011;3026;53.612;7.278;2023-06-24T07:15:06;10.67;;;7.23;;
5995;SDS011;3026;53.612;7.278;2023-06-24T07:17:33;9.10;;;6.53;;
5995;SDS011;3026;53.612;7.278;2023-06-24T07:20:00;9.40;;;7.27;;
5995;SDS011;3026;53.612;7.278;2023-06-24T07:22:27;7.53;;;6.83;;
5995;SDS011;3026;53.612;7.278;2023-06-24T07:24:55;7.77;;;6.70;;
5995;SDS011;3026;53.612;7.278;2023-06-24T07:27:22;11.17;;;7.90;;
5995;SDS011;3026;53.612;7.278;2023-06-24T07:29:49;11.03;;;7.33;;
5995;SDS011;3026;53.612;7.278;2023-06-24T07:32:17;8.87;;;7.00;;
5995;SDS011;3026;53.612;7.278;2023-06-24T07:34:44;9.87;;;6.40;;
5995;SDS011;3026;53.612;7.278;2023-06-24T07:37:11;8.83;;;7.00;;
5995;SDS011;3026;53.612;7.278;2023-06-24T07:39:38;11.20;;;6.70;;
5995;SDS011;3026;53.612;7.278;2023-06-24T07:42:05;8.27;;;6.23;;
5995;SDS011;3026;53.612;7.278;2023-06-24T07:44:31;7.77;;;6.77;;
5995;SDS011;3026;53.612;7.278;2023-06-24T07:46:58;8.03;;;5.90;;
5995;SDS011;3026;53.612;7.278;2023-06-24T07:49:27;7.33;;;5.70;;
5995;SDS011;3026;53.612;7.278;2023-06-24T07:51:54;7.80;;;5.67;;
5995;SDS011;3026;53.612;7.278;2023-06-24T07:54:20;6.93;;;5.90;;
5995;SDS011;3026;53.612;7.278;2023-06-24T07:56:47;8.33;;;5.57;;
5995;SDS011;3026;53.612;7.278;2023-06-24T07:59:14;6.30;;;5.37;;
5995;SDS011;3026;53.612;7.278;2023-06-24T08:01:41;9.63;;;5.80;;
5995;SDS011;3026;53.612;7.278;2023-06-24T08:04:07;6.63;;;5.77;;
5995;SDS011;3026;53.612;7.278;2023-06-24T08:06:36;8.10;;;6.00;;
5995;SDS011;3026;53.612;7.278;2023-06-24T08:09:02;9.30;;;5.43;;
5995;SDS011;3026;53.612;7.278;2023-06-24T08:11:29;7.73;;;5.43;;
5995;SDS011;3026;53.612;7.278;2023-06-24T08:13:56;6.97;;;5.80;;
5995;SDS011;3026;53.612;7.278;2023-06-24T08:16:22;8.17;;;5.77;;
5995;SDS011;3026;53.612;7.278;2023-06-24T08:18:49;7.53;;;5.10;;
5995;SDS011;3026;53.612;7.278;2023-06-24T08:21:16;8.13;;;6.30;;
5995;SDS011;3026;53.612;7.278;2023-06-24T08:23:45;8.03;;;5.60;;
5995;SDS011;3026;53.612;7.278;2023-06-24T08:26:12;5.90;;;5.10;;
5995;SDS011;3026;53.612;7.278;2023-06-24T08:28:39;9.47;;;6.60;;
5995;SDS011;3026;53.612;7.278;2023-06-24T08:31:06;9.97;;;6.40;;
5995;SDS011;3026;53.612;7.278;2023-06-24T08:33:32;6.47;;;5.40;;
5995;SDS011;3026;53.612;7.278;2023-06-24T08:35:59;6.47;;;5.32;;
5995;SDS011;3026;53.612;7.278;2023-06-24T08:38:26;8.35;;;6.50;;
5995;SDS011;3026;53.612;7.278;2023-06-24T08:40:54;8.57;;;6.05;;
5995;SDS011;3026;53.612;7.278;2023-06-24T08:43:22;7.68;;;6.15;;
5995;SDS011;3026;53.612;7.278;2023-06-24T08:45:49;5.95;;;5.30;;
5995;SDS011;3026;53.612;7.278;2023-06-24T08:48:16;6.07;;;5.30;;
5995;SDS011;3026;53.612;7.278;2023-06-24T08:50:46;6.65;;;5.25;;
5995;SDS011;3026;53.612;7.278;2023-06-24T08:53:18;8.98;;;5.07;;
5995;SDS011;3026;53.612;7.278;2023-06-24T08:55:47;8.35;;;5.97;;
5995;SDS011;3026;53.612;7.278;2023-06-24T08:58:17;9.35;;;5.70;;
5995;SDS011;3026;53.612;7.278;2023-06-24T09:00:43;6.10;;;5.47;;
5995;SDS011;3026;53.612;7.278;2023-06-24T09:03:10;6.28;;;5.35;;
5995;SDS011;3026;53.612;7.278;2023-06-24T09:05:37;6.18;;;5.30;;
5995;SDS011;3026;53.612;7.278;2023-06-24T09:08:04;5.78;;;5.28;;
5995;SDS011;3026;53.612;7.278;2023-06-24T09:10:32;7.15;;;5.53;;
5995;SDS011;3026;53.612;7.278;2023-06-24T09:13:00;7.22;;;5.72;;
5995;SDS011;3026;53.612;7.278;2023-06-24T09:15:31;7.25;;;5.70;;
5995;SDS011;3026;53.612;7.278;2023-06-24T09:17:58;6.38;;;5.78;;
5995;SDS011;3026;53.612;7.278;2023-06-24T09:20:26;7.22;;;5.38;;
5995;SDS011;3026;53.612;7.278;2023-06-24T09:22:57;7.55;;;5.90;;
5995;SDS011;3026;53.612;7.278;2023-06-24T09:25:26;6.60;;;5.80;;
5995;SDS011;3026;53.612;7.278;2023-06-24T09:27:52;8.93;;;5.82;;
5995;SDS011;3026;53.612;7.278;2023-06-24T09:30:21;7.57;;;5.20;;
5995;SDS011;3026;53.612;7.278;2023-06-24T09:32:50;6.15;;;5.50;;
5995;SDS011;3026;53.612;7.278;2023-06-24T09:35:18;6.82;;;5.90;;
5995;SDS011;3026;53.612;7.278;2023-06-24T09:37:50;7.32;;;5.35;;
5995;SDS011;3026;53.612;7.278;2023-06-24T09:40:17;7.25;;;6.45;;
5995;SDS011;3026;53.612;7.278;2023-06-24T09:42:48;7.35;;;5.28;;
5995;SDS011;3026;53.612;7.278;2023-06-24T09:45:19;7.43;;;6.10;;
5995;SDS011;3026;53.612;7.278;2023-06-24T09:47:47;7.72;;;5.55;;
5995;SDS011;3026;53.612;7.278;2023-06-24T09:50:15;6.88;;;5.80;;
5995;SDS011;3026;53.612;7.278;2023-06-24T09:52:42;7.15;;;5.63;;
5995;SDS011;3026;53.612;7.278;2023-06-24T09:55:11;7.68;;;5.25;;
5995;SDS011;3026;53.612;7.278;2023-06-24T09:57:40;7.40;;;6.53;;
5995;SDS011;3026;53.612;7.278;2023-06-24T10:00:10;8.00;;;6.72;;
5995;SDS011;3026;53.612;7.278;2023-06-24T10:02:40;8.73;;;6.22;;
5995;SDS011;3026;53.612;7.278;2023-06-24T10:05:07;8.68;;;6.55;;
5995;SDS011;3026;53.612;7.278;2023-06-24T10:07:36;8.98;;;5.70;;
5995;SDS011;3026;53.612;7.278;2023-06-24T10:10:05;8.02;;;6.32;;
5995;SDS011;3026;53.612;7.278;2023-06-24T10:12:33;11.73;;;7.38;;
5995;SDS011;3026;53.612;7.278;2023-06-24T10:15:01;8.77;;;5.88;;
5995;SDS011;3026;53.612;7.278;2023-06-24T10:17:29;7.45;;;5.88;;
5995;SDS011;3026;53.612;7.278;2023-06-24T10:19:56;9.07;;;6.63;;
5995;SDS011;3026;53.612;7.278;2023-06-24T10:22:23;11.57;;;6.40;;
5995;SDS011;3026;53.612;7.278;2023-06-24T10:24:52;7.65;;;6.72;;
5995;SDS011;3026;53.612;7.278;2023-06-24T10:27:20;9.68;;;7.22;;
5995;SDS011;3026;53.612;7.278;2023-06-24T10:29:48;8.07;;;6.28;;
5995;SDS011;3026;53.612;7.278;2023-06-24T10:32:16;8.55;;;7.25;;
5995;SDS011;3026;53.612;7.278;2023-06-24T10:34:44;8.57;;;6.90;;
5995;SDS011;3026;53.612;7.278;2023-06-24T10:37:13;8.68;;;6.80;;
5995;SDS011;3026;53.612;7.278;2023-06-24T10:39:48;10.40;;;7.65;;
5995;SDS011;3026;53.612;7.278;2023-06-24T10:42:27;9.32;;;7.75;;
5995;SDS011;3026;53.612;7.278;2023-06-24T10:44:56;11.10;;;6.38;;
5995;SDS011;3026;53.612;7.278;2023-06-24T10:47:24;10.80;;;5.82;;
5995;SDS011;3026;53.612;7.278;2023-06-24T10:49:51;8.05;;;6.35;;
5995;SDS011;3026;53.612;7.278;2023-06-24T10:52:18;8.25;;;5.97;;
5995;SDS011;3026;53.612;7.278;2023-06-24T10:54:46;10.05;;;6.95;;
5995;SDS011;3026;53.612;7.278;2023-06-24T10:57:13;8.60;;;5.53;;
5995;SDS011;3026;53.612;7.278;2023-06-24T10:59:41;7.80;;;6.18;;
5995;SDS011;3026;53.612;7.278;2023-06-24T11:02:09;6.70;;;6.00;;
5995;SDS011;3026;53.612;7.278;2023-06-24T11:04:42;8.65;;;5.95;;
5995;SDS011;3026;53.612;7.278;2023-06-24T11:07:10;8.15;;;5.60;;
5995;SDS011;3026;53.612;7.278;2023-06-24T11:09:37;7.05;;;5.28;;
5995;SDS011;3026;53.612;7.278;2023-06-24T11:12:04;7.70;;;5.97;;
5995;SDS011;3026;53.612;7.278;2023-06-24T11:14:32;6.43;;;5.45;;
5995;SDS011;3026;53.612;7.278;2023-06-24T11:17:02;6.57;;;5.97;;
5995;SDS011;3026;53.612;7.278;2023-06-24T11:19:29;7.28;;;5.70;;
5995;SDS011;3026;53.612;7.278;2023-06-24T11:21:59;8.48;;;5.88;;
5995;SDS011;3026;53.612;7.278;2023-06-24T11:24:26;7.75;;;5.65;;
5995;SDS011;3026;53.612;7.278;2023-06-24T11:26:53;6.45;;;5.80;;
5995;SDS011;3026;53.612;7.278;2023-06-24T11:29:20;8.60;;;5.60;;
5995;SDS011;3026;53.612;7.278;2023-06-24T11:31:47;8.63;;;6.93;;
5995;SDS011;3026;53.612;7.278;2023-06-24T11:34:16;8.18;;;6.65;;
5995;SDS011;3026;53.612;7.278;2023-06-24T11:36:44;6.20;;;4.88;;
5995;SDS011;3026;53.612;7.278;2023-06-24T11:39:20;5.53;;;4.90;;
5995;SDS011;3026;53.612;7.278;2023-06-24T11:41:47;7.10;;;5.97;;
5995;SDS011;3026;53.612;7.278;2023-06-24T11:44:14;7.72;;;5.97;;
5995;SDS011;3026;53.612;7.278;2023-06-24T11:46:41;7.03;;;5.55;;
5995;SDS011;3026;53.612;7.278;2023-06-24T11:49:08;7.60;;;5.35;;
5995;SDS011;3026;53.612;7.278;2023-06-24T11:51:36;6.43;;;5.70;;
5995;SDS011;3026;53.612;7.278;2023-06-24T11:54:07;6.90;;;6.20;;
5995;SDS011;3026;53.612;7.278;2023-06-24T11:56:34;9.65;;;5.68;;
5995;SDS011;3026;53.612;7.278;2023-06-24T11:59:03;7.07;;;5.55;;
5995;SDS011;3026;53.612;7.278;2023-06-24T12:01:30;8.15;;;6.55;;
5995;SDS011;3026;53.612;7.278;2023-06-24T12:03:59;10.38;;;6.80;;
5995;SDS011;3026;53.612;7.278;2023-06-24T12:06:26;8.55;;;6.80;;
5995;SDS011;3026;53.612;7.278;2023-06-24T12:08:55;9.60;;;6.80;;
5995;SDS011;3026;53.612;7.278;2023-06-24T12:11:21;7.47;;;6.72;;
5995;SDS011;3026;53.612;7.278;2023-06-24T12:13:48;8.65;;;6.65;;
5995;SDS011;3026;53.612;7.278;2023-06-24T12:16:15;8.65;;;7.72;;
5995;SDS011;3026;53.612;7.278;2023-06-24T12:18:42;8.48;;;7.30;;
5995;SDS011;3026;53.612;7.278;2023-06-24T12:21:10;11.30;;;8.48;;
5995;SDS011;3026;53.612;7.278;2023-06-24T12:23:38;8.57;;;6.35;;
5995;SDS011;3026;53.612;7.278;2023-06-24T12:26:27;7.72;;;6.65;;
5995;SDS011;3026;53.612;7.278;2023-06-24T12:28:54;7.40;;;6.70;;
5995;SDS011;3026;53.612;7.278;2023-06-24T12:31:22;8.57;;;7.25;;
5995;SDS011;3026;53.612;7.278;2023-06-24T12:33:49;8.10;;;6.95;;
5995;SDS011;3026;53.612;7.278;2023-06-24T12:36:17;6.97;;;5.85;;
5995;SDS011;3026;53.612;7.278;2023-06-24T12:38:44;10.38;;;7.03;;
5995;SDS011;3026;53.612;7.278;2023-06-24T12:41:11;7.15;;;5.57;;
5995;SDS011;3026;53.612;7.278;2023-06-24T12:43:39;6.65;;;5.35;;
5995;SDS011;3026;53.612;7.278;2023-06-24T12:46:06;9.00;;;7.22;;
5995;SDS011;3026;53.612;7.278;2023-06-24T12:48:33;6.65;;;5.97;;
5995;SDS011;3026;53.612;7.278;2023-06-24T12:51:00;8.07;;;5.90;;
5995;SDS011;3026;53.612;7.278;2023-06-24T12:53:26;6.82;;;6.13;;
5995;SDS011;3026;53.612;7.278;2023-06-24T12:55:53;9.13;;;7.78;;
5995;SDS011;3026;53.612;7.278;2023-06-24T12:58:22;8.50;;;7.38;;
5995;SDS011;3026;53.612;7.278;2023-06-24T13:00:51;11.88;;;7.45;;
5995;SDS011;3026;53.612;7.278;2023-06-24T13:03:18;14.43;;;8.68;;
5995;SDS011;3026;53.612;7.278;2023-06-24T13:05:45;12.98;;;9.70;;
5995;SDS011;3026;53.612;7.278;2023-06-24T13:08:12;13.18;;;9.50;;
5995;SDS011;3026;53.612;7.278;2023-06-24T13:10:39;11.88;;;9.77;;
5995;SDS011;3026;53.612;7.278;2023-06-24T13:13:06;13.63;;;10.10;;
5995;SDS011;3026;53.612;7.278;2023-06-24T13:15:33;15.13;;;10.15;;
5995;SDS011;3026;53.612;7.278;2023-06-24T13:18:01;15.35;;;10.05;;
5995;SDS011;3026;53.612;7.278;2023-06-24T13:20:28;14.98;;;9.75;;
5995;SDS011;3026;53.612;7.278;2023-06-24T13:22:55;15.02;;;10.98;;
5995;SDS011;3026;53.612;7.278;2023-06-24T13:25:22;11.57;;;9.38;;
5995;SDS011;3026;53.612;7.278;2023-06-24T13:27:49;11.43;;;9.40;;
5995;SDS011;3026;53.612;7.278;2023-06-24T13:30:16;14.85;;;10.15;;
5995;SDS011;3026;53.612;7.278;2023-06-24T13:32:43;11.93;;;8.85;;
5995;SDS011;3026;53.612;7.278;2023-06-24T13:35:11;9.43;;;7.22;;
5995;SDS011;3026;53.612;7.278;2023-06-24T13:37:38;9.38;;;6.70;;
5995;SDS011;3026;53.612;7.278;2023-06-24T13:40:06;8.60;;;7.32;;
5995;SDS011;3026;53.612;7.278;2023-06-24T13:42:33;8.60;;;6.05;;
5995;SDS011;3026;53.612;7.278;2023-06-24T13:45:00;9.35;;;6.22;;
5995;SDS011;3026;53.612;7.278;2023-06-24T13:47:27;8.18;;;6.30;;
5995;SDS011;3026;53.612;7.278;2023-06-24T13:49:54;10.75;;;6.07;;
5995;SDS011;3026;53.612;7.278;2023-06-24T13:52:25;6.70;;;4.80;;
5995;SDS011;3026;53.612;7.278;2023-06-24T13:54:52;5.70;;;4.15;;
5995;SDS011;3026;53.612;7.278;2023-06-24T13:57:19;5.50;;;4.05;;
5995;SDS011;3026;53.612;7.278;2023-06-24T13:59:45;6.75;;;4.82;;
5995;SDS011;3026;53.612;7.278;2023-06-24T14:02:12;11.60;;;4.75;;
5995;SDS011;3026;53.612;7.278;2023-06-24T14:04:39;6.85;;;4.43;;
5995;SDS011;3026;53.612;7.278;2023-06-24T14:07:06;5.43;;;3.63;;
5995;SDS011;3026;53.612;7.278;2023-06-24T14:09:35;5.20;;;4.40;;
5995;SDS011;3026;53.612;7.278;2023-06-24T14:12:01;7.35;;;4.38;;
5995;SDS011;3026;53.612;7.278;2023-06-24T14:14:29;7.82;;;5.00;;
5995;SDS011;3026;53.612;7.278;2023-06-24T14:16:56;9.18;;;5.47;;
5995;SDS011;3026;53.612;7.278;2023-06-24T14:19:22;6.82;;;5.90;;
5995;SDS011;3026;53.612;7.278;2023-06-24T14:21:49;7.28;;;4.72;;
5995;SDS011;3026;53.612;7.278;2023-06-24T14:24:16;6.72;;;4.55;;
5995;SDS011;3026;53.612;7.278;2023-06-24T14:26:44;8.57;;;5.00;;
5995;SDS011;3026;53.612;7.278;2023-06-24T14:29:14;6.32;;;4.78;;
5995;SDS011;3026;53.612;7.278;2023-06-24T14:31:41;6.72;;;4.95;;
5995;SDS011;3026;53.612;7.278;2023-06-24T14:34:08;6.47;;;5.30;;
5995;SDS011;3026;53.612;7.278;2023-06-24T14:36:35;7.50;;;5.28;;
5995;SDS011;3026;53.612;7.278;2023-06-24T14:39:02;7.57;;;4.95;;
5995;SDS011;3026;53.612;7.278;2023-06-24T14:41:29;6.13;;;4.70;;
5995;SDS011;3026;53.612;7.278;2023-06-24T14:43:57;6.05;;;4.22;;
5995;SDS011;3026;53.612;7.278;2023-06-24T14:46:25;5.25;;;4.50;;
5995;SDS011;3026;53.612;7.278;2023-06-24T14:48:53;6.55;;;5.30;;
5995;SDS011;3026;53.612;7.278;2023-06-24T14:51:20;6.85;;;5.00;;
5995;SDS011;3026;53.612;7.278;2023-06-24T14:53:48;7.35;;;4.60;;
5995;SDS011;3026;53.612;7.278;2023-06-24T14:56:15;7.70;;;4.97;;
5995;SDS011;3026;53.612;7.278;2023-06-24T14:58:43;6.47;;;4.63;;
5995;SDS011;3026;53.612;7.278;2023-06-24T15:01:11;6.45;;;4.75;;
5995;SDS011;3026;53.612;7.278;2023-06-24T15:03:38;8.52;;;4.88;;
5995;SDS011;3026;53.612;7.278;2023-06-24T15:06:05;5.55;;;4.65;;
5995;SDS011;3026;53.612;7.278;2023-06-24T15:08:32;5.80;;;4.15;;
5995;SDS011;3026;53.612;7.278;2023-06-24T15:10:58;7.82;;;4.65;;
5995;SDS011;3026;53.612;7.278;2023-06-24T15:13:25;4.75;;;3.95;;
5995;SDS011;3026;53.612;7.278;2023-06-24T15:15:52;5.70;;;4.00;;